createdAt,value
2017-03-06T00:00:12.511Z,91.24
2017-03-06T00:00:53.194Z,91.52
2017-03-06T00:01:33.920Z,91.33
2017-03-06T00:02:14.548Z,91.42
2017-03-06T00:02:55.226Z,91.42
2017-03-06T00:03:35.861Z,91.71
2017-03-06T00:04:16.522Z,91.8
2017-03-06T00:04:57.194Z,91.42
2017-03-06T00:05:37.915Z,91.33
2017-03-06T00:06:18.665Z,91.42
2017-03-06T00:06:59.360Z,91.61
2017-03-06T00:07:40.092Z,91.42
2017-03-06T00:08:20.730Z,91.61
2017-03-06T00:09:01.412Z,91.61
2017-03-06T00:09:42.216Z,91.61
2017-03-06T00:10:22.927Z,91.61
2017-03-06T00:11:03.676Z,91.61
2017-03-06T00:11:44.326Z,91.52
2017-03-06T00:12:24.983Z,91.14
2017-03-06T00:13:05.601Z,91.14
2017-03-06T00:13:46.283Z,91.42
2017-03-06T00:14:26.942Z,91.42
2017-03-06T00:15:07.704Z,91.33
2017-03-06T00:15:48.448Z,91.33
2017-03-06T00:16:30.111Z,91.42
2017-03-06T00:17:10.786Z,91.61
2017-03-06T00:17:52.457Z,91.42
2017-03-06T00:18:34.170Z,91.42
2017-03-06T00:19:14.865Z,91.71
2017-03-06T00:19:55.442Z,92.09
2017-03-06T00:20:36.110Z,91.89
2017-03-06T00:21:16.782Z,91.99
2017-03-06T00:21:57.488Z,91.71
2017-03-06T00:22:38.046Z,92.09
2017-03-06T00:23:18.698Z,91.8
2017-03-06T00:23:59.435Z,92.09
2017-03-06T00:24:40.044Z,91.61
2017-03-06T00:25:20.848Z,91.89
2017-03-06T00:26:01.494Z,91.99
2017-03-06T00:26:42.072Z,91.8
2017-03-06T00:27:22.718Z,92.18
2017-03-06T00:28:03.348Z,92.18
2017-03-06T00:28:44.003Z,92.18
2017-03-06T00:29:24.698Z,92.66
2017-03-06T00:30:06.337Z,92.28
2017-03-06T00:30:46.982Z,92.09
2017-03-06T00:31:27.648Z,92.37
2017-03-06T00:32:09.318Z,92.47
2017-03-06T00:32:49.880Z,92.37
2017-03-06T00:33:30.538Z,92.28
2017-03-06T00:34:11.284Z,92.56
2017-03-06T00:34:51.826Z,92.37
2017-03-06T00:35:32.504Z,92.56
2017-03-06T00:36:13.232Z,92.28
2017-03-06T00:36:54.915Z,92.18
2017-03-06T00:37:35.475Z,92.37
2017-03-06T00:38:16.128Z,92.28
2017-03-06T00:38:56.853Z,92.28
2017-03-06T00:39:37.531Z,92.94
2017-03-06T00:40:18.145Z,91.99
2017-03-06T00:40:58.835Z,92.56
2017-03-06T00:41:39.545Z,92.75
2017-03-06T00:42:20.245Z,92.71
2017-03-06T00:43:00.831Z,92.61
2017-03-06T00:43:41.562Z,92.52
2017-03-06T00:44:23.239Z,92.23
2017-03-06T00:45:03.981Z,92.71
2017-03-06T00:45:44.657Z,92.47
2017-03-06T00:46:25.320Z,92.56
2017-03-06T00:47:06.037Z,92.85
2017-03-06T00:47:46.706Z,92.8
2017-03-06T00:48:27.403Z,92.94
2017-03-06T00:49:08.094Z,93.27
2017-03-06T00:49:48.666Z,93.32
2017-03-06T00:50:29.323Z,93.32
2017-03-06T00:51:10.027Z,93.18
2017-03-06T00:51:50.726Z,93.08
2017-03-06T00:52:31.360Z,93.23
2017-03-06T00:53:12.039Z,93.13
2017-03-06T00:53:52.733Z,93.08
2017-03-06T00:54:33.422Z,92.94
2017-03-06T00:55:14.012Z,93.23
2017-03-06T00:55:54.751Z,93.04
2017-03-06T00:56:35.437Z,93.13
2017-03-06T00:57:16.163Z,92.94
2017-03-06T00:57:56.712Z,92.94
2017-03-06T00:58:37.469Z,92.94
2017-03-06T00:59:18.097Z,92.94
2017-03-06T00:59:58.668Z,92.94
2017-03-06T01:00:39.318Z,93.04
2017-03-06T01:01:21.075Z,92.94
2017-03-06T01:02:01.640Z,92.94
2017-03-06T01:02:42.322Z,93.04
2017-03-06T01:03:23.044Z,92.94
2017-03-06T01:04:03.599Z,92.94
2017-03-06T01:04:44.257Z,93.13
2017-03-06T01:05:24.902Z,92.85
2017-03-06T01:06:05.464Z,93.13
2017-03-06T01:06:46.116Z,93.32
2017-03-06T01:07:27.883Z,93.32
2017-03-06T01:08:08.459Z,93.13
2017-03-06T01:08:49.188Z,93.32
2017-03-06T01:09:29.912Z,93.32
2017-03-06T01:10:10.593Z,93.13
2017-03-06T01:10:51.154Z,93.32
2017-03-06T01:11:31.812Z,92.94
2017-03-06T01:12:12.540Z,92.85
2017-03-06T01:12:53.217Z,93.04
2017-03-06T01:13:33.808Z,93.13
2017-03-06T01:14:14.526Z,93.04
2017-03-06T01:14:55.356Z,93.13
2017-03-06T01:15:36.015Z,93.32
2017-03-06T01:16:16.697Z,92.94
2017-03-06T01:16:57.441Z,92.94
2017-03-06T01:17:38.115Z,93.04
2017-03-06T01:18:18.884Z,93.13
2017-03-06T01:18:59.606Z,92.94
2017-03-06T01:19:40.249Z,93.13
2017-03-06T01:20:20.899Z,92.94
2017-03-06T01:21:01.548Z,92.94
2017-03-06T01:21:42.215Z,93.32
2017-03-06T01:22:22.869Z,93.04
2017-03-06T01:23:03.538Z,92.94
2017-03-06T01:23:44.217Z,93.13
2017-03-06T01:24:26.868Z,93.04
2017-03-06T01:25:07.432Z,93.13
2017-03-06T01:25:49.127Z,92.94
2017-03-06T01:26:31.844Z,93.23
2017-03-06T01:27:14.496Z,92.66
2017-03-06T01:27:55.041Z,92.94
2017-03-06T01:28:35.709Z,93.7
2017-03-06T01:29:16.360Z,93.51
2017-03-06T01:29:57.018Z,93.41
2017-03-06T01:30:37.769Z,93.51
2017-03-06T01:31:18.411Z,93.18
2017-03-06T01:31:59.070Z,93.51
2017-03-06T01:32:39.717Z,93.32
2017-03-06T01:33:21.394Z,93.51
2017-03-06T01:34:01.976Z,93.23
2017-03-06T01:34:43.629Z,93.23
2017-03-06T01:35:24.366Z,93.23
2017-03-06T01:36:04.940Z,93.32
2017-03-06T01:36:45.587Z,93.41
2017-03-06T01:37:26.336Z,93.13
2017-03-06T01:38:06.900Z,93.13
2017-03-06T01:38:47.563Z,93.94
2017-03-06T01:39:28.261Z,93.94
2017-03-06T01:40:13.868Z,93.56
2017-03-06T01:40:54.433Z,93.8
2017-03-06T01:41:35.061Z,93.6
2017-03-06T01:42:16.796Z,93.56
2017-03-06T01:42:57.351Z,93.46
2017-03-06T01:43:38.073Z,93.56
2017-03-06T01:44:18.807Z,93.84
2017-03-06T01:44:59.367Z,93.94
2017-03-06T01:45:40.137Z,93.94
2017-03-06T01:46:21.779Z,94.03
2017-03-06T01:47:02.363Z,93.75
2017-03-06T01:47:43.098Z,93.94
2017-03-06T01:48:25.799Z,93.94
2017-03-06T01:49:07.490Z,93.94
2017-03-06T01:49:49.243Z,93.94
2017-03-06T01:50:29.812Z,93.94
2017-03-06T01:51:10.565Z,94.13
2017-03-06T01:51:52.257Z,94.13
2017-03-06T01:52:32.927Z,93.94
2017-03-06T01:53:13.675Z,93.94
2017-03-06T01:53:54.428Z,93.94
2017-03-06T01:54:35.155Z,94.13
2017-03-06T01:55:15.816Z,93.94
2017-03-06T01:55:57.590Z,94.03
2017-03-06T01:56:38.349Z,94.03
2017-03-06T01:57:20.057Z,94.13
2017-03-06T01:58:00.792Z,94.13
2017-03-06T01:58:42.528Z,93.75
2017-03-06T01:59:23.197Z,93.94
2017-03-06T02:00:03.760Z,94.6
2017-03-06T02:00:45.477Z,94.6
2017-03-06T02:01:28.216Z,94.6
2017-03-06T02:02:08.895Z,94.51
2017-03-06T02:02:49.451Z,94.51
2017-03-06T02:03:30.132Z,94.42
2017-03-06T02:04:10.842Z,94.51
2017-03-06T02:04:51.394Z,94.79
2017-03-06T02:05:32.060Z,94.89
2017-03-06T02:06:12.711Z,94.6
2017-03-06T02:06:53.295Z,94.27
2017-03-06T02:07:35.975Z,94.84
2017-03-06T02:08:16.813Z,94.93
2017-03-06T02:08:57.393Z,94.93
2017-03-06T02:09:38.029Z,94.65
2017-03-06T02:10:18.728Z,95.12
2017-03-06T02:10:59.446Z,94.74
2017-03-06T02:11:39.998Z,94.93
2017-03-06T02:12:20.772Z,94.93
2017-03-06T02:13:01.454Z,94.93
2017-03-06T02:13:42.183Z,94.65
2017-03-06T02:14:22.884Z,94.93
2017-03-06T02:15:03.596Z,95.12
2017-03-06T02:15:44.366Z,95.79
2017-03-06T02:16:26.137Z,95.69
2017-03-06T02:17:06.900Z,95.41
2017-03-06T02:17:48.580Z,95.41
2017-03-06T02:18:30.244Z,95.41
2017-03-06T02:19:11.924Z,95.12
2017-03-06T02:19:52.594Z,95.31
2017-03-06T02:20:33.232Z,95.79
2017-03-06T02:21:13.997Z,95.79
2017-03-06T02:21:54.745Z,95.5
2017-03-06T02:22:36.426Z,95.69
2017-03-06T02:23:18.107Z,95.79
2017-03-06T02:23:59.784Z,95.6
2017-03-06T02:24:40.520Z,95.98
2017-03-06T02:25:21.197Z,95.6
2017-03-06T02:26:01.834Z,95.69
2017-03-06T02:26:42.589Z,95.79
2017-03-06T02:27:23.277Z,95.79
2017-03-06T02:28:03.996Z,95.69
2017-03-06T02:28:44.562Z,95.98
2017-03-06T02:29:26.306Z,95.69
2017-03-06T02:30:07.030Z,95.69
2017-03-06T02:30:47.584Z,95.69
2017-03-06T02:31:28.344Z,95.79
2017-03-06T02:32:08.993Z,95.69
2017-03-06T02:32:49.560Z,95.69
2017-03-06T02:33:30.229Z,95.69
2017-03-06T02:34:10.951Z,95.69
2017-03-06T02:34:51.614Z,95.69
2017-03-06T02:35:32.365Z,95.6
2017-03-06T02:36:13.126Z,95.5
2017-03-06T02:36:53.899Z,95.6
2017-03-06T02:37:34.630Z,95.5
2017-03-06T02:38:15.389Z,95.55
2017-03-06T02:38:56.148Z,95.5
2017-03-06T02:39:36.715Z,95.84
2017-03-06T02:40:17.459Z,95.84
2017-03-06T02:40:58.190Z,95.84
2017-03-06T02:41:38.773Z,95.69
2017-03-06T02:42:19.444Z,95.74
2017-03-06T02:43:00.161Z,95.84
2017-03-06T02:43:40.733Z,96.03
2017-03-06T02:44:21.462Z,95.84
2017-03-06T02:45:03.186Z,96.03
2017-03-06T02:45:43.898Z,95.46
2017-03-06T02:46:24.475Z,96.03
2017-03-06T02:47:06.234Z,95.84
2017-03-06T02:47:46.920Z,95.27
2017-03-06T02:48:27.626Z,95.46
2017-03-06T02:49:08.216Z,95.46
2017-03-06T02:49:49.989Z,95.36
2017-03-06T02:50:30.758Z,95.27
2017-03-06T02:51:12.498Z,95.27
2017-03-06T02:51:53.190Z,95.27
2017-03-06T02:52:33.825Z,95.27
2017-03-06T02:53:15.475Z,95.55
2017-03-06T02:53:56.226Z,95.27
2017-03-06T02:54:36.794Z,95.46
2017-03-06T02:55:17.569Z,95.65
2017-03-06T02:55:58.250Z,95.36
2017-03-06T02:56:38.821Z,95.36
2017-03-06T02:57:19.398Z,95.55
2017-03-06T02:58:00.132Z,95.74
2017-03-06T02:58:40.799Z,95.74
2017-03-06T02:59:21.348Z,95.55
2017-03-06T03:00:03.044Z,95.55
2017-03-06T03:00:43.744Z,95.55
2017-03-06T03:01:24.446Z,95.36
2017-03-06T03:02:05.015Z,94.98
2017-03-06T03:02:45.778Z,95.55
2017-03-06T03:03:26.522Z,94.89
2017-03-06T03:04:07.278Z,94.98
2017-03-06T03:04:48.017Z,94.89
2017-03-06T03:05:28.778Z,95.07
2017-03-06T03:06:09.469Z,94.98
2017-03-06T03:06:50.197Z,94.98
2017-03-06T03:07:30.962Z,94.98
2017-03-06T03:08:11.721Z,95.07
2017-03-06T03:08:52.456Z,94.98
2017-03-06T03:09:33.214Z,95.07
2017-03-06T03:10:13.971Z,94.89
2017-03-06T03:10:54.731Z,94.98
2017-03-06T03:11:35.496Z,94.79
2017-03-06T03:12:16.249Z,94.79
2017-03-06T03:12:56.975Z,95.07
2017-03-06T03:13:37.730Z,94.79
2017-03-06T03:14:19.428Z,95.27
2017-03-06T03:15:00.186Z,94.89
2017-03-06T03:15:41.937Z,95.27
2017-03-06T03:16:22.700Z,94.89
2017-03-06T03:17:03.573Z,94.93
2017-03-06T03:17:44.329Z,94.89
2017-03-06T03:18:24.904Z,94.98
2017-03-06T03:19:05.505Z,95.07
2017-03-06T03:19:46.073Z,94.74
2017-03-06T03:20:26.927Z,95.6
2017-03-06T03:21:07.639Z,95.69
2017-03-06T03:21:48.321Z,95.31
2017-03-06T03:22:28.874Z,95.5
2017-03-06T03:23:09.652Z,95.31
2017-03-06T03:23:50.391Z,95.41
2017-03-06T03:24:30.967Z,95.6
2017-03-06T03:25:11.716Z,95.5
2017-03-06T03:25:53.067Z,95.12
2017-03-06T03:26:33.646Z,95.31
2017-03-06T03:27:14.389Z,95.98
2017-03-06T03:27:55.129Z,95.79
2017-03-06T03:28:35.679Z,95.69
2017-03-06T03:29:16.472Z,95.69
2017-03-06T03:29:57.149Z,95.98
2017-03-06T03:30:37.843Z,95.5
2017-03-06T03:31:18.412Z,95.5
2017-03-06T03:31:59.146Z,96.17
2017-03-06T03:32:40.868Z,96.26
2017-03-06T03:33:21.527Z,96.26
2017-03-06T03:34:02.080Z,95.6
2017-03-06T03:34:42.737Z,96.36
2017-03-06T03:35:23.395Z,95.6
2017-03-06T03:36:04.033Z,96.36
2017-03-06T03:36:44.713Z,95.79
2017-03-06T03:37:25.353Z,95.6
2017-03-06T03:38:05.983Z,95.5
2017-03-06T03:38:46.701Z,95.5
2017-03-06T03:39:27.414Z,95.6
2017-03-06T03:40:07.969Z,95.79
2017-03-06T03:40:48.649Z,95.79
2017-03-06T03:41:29.313Z,95.69
2017-03-06T03:42:10.005Z,95.6
2017-03-06T03:42:50.555Z,95.41
2017-03-06T03:43:31.235Z,95.69
2017-03-06T03:44:11.921Z,95.5
2017-03-06T03:44:52.629Z,95.88
2017-03-06T03:45:33.216Z,95.5
2017-03-06T03:46:13.847Z,95.41
2017-03-06T03:46:54.533Z,95.41
2017-03-06T03:47:35.236Z,95.79
2017-03-06T03:48:15.802Z,95.79
2017-03-06T03:48:56.467Z,95.79
2017-03-06T03:49:37.161Z,95.79
2017-03-06T03:50:17.869Z,95.98
2017-03-06T03:50:58.397Z,95.84
2017-03-06T03:51:39.068Z,95.41
2017-03-06T03:52:19.826Z,95.41
2017-03-06T03:53:00.478Z,95.41
2017-03-06T03:53:41.037Z,95.41
2017-03-06T03:54:21.681Z,95.41
2017-03-06T03:55:02.328Z,95.41
2017-03-06T03:55:42.882Z,95.79
2017-03-06T03:56:23.516Z,95.41
2017-03-06T03:57:04.173Z,95.79
2017-03-06T03:57:44.752Z,95.79
2017-03-06T03:58:25.418Z,95.79
2017-03-06T03:59:06.101Z,95.98
2017-03-06T03:59:46.776Z,95.31
2017-03-06T04:00:27.325Z,95.31
2017-03-06T04:01:08.055Z,95.22
2017-03-06T04:01:48.705Z,95.79
2017-03-06T04:02:29.387Z,95.31
2017-03-06T04:03:09.962Z,95.22
2017-03-06T04:03:50.615Z,95.22
2017-03-06T04:04:31.274Z,95.41
2017-03-06T04:05:11.933Z,95.31
2017-03-06T04:05:52.554Z,95.41
2017-03-06T04:06:34.227Z,95.22
2017-03-06T04:07:14.863Z,95.5
2017-03-06T04:07:55.539Z,95.74
2017-03-06T04:08:36.208Z,95.41
2017-03-06T04:09:16.895Z,95.36
2017-03-06T04:09:57.619Z,95.5
2017-03-06T04:10:38.170Z,95.46
2017-03-06T04:11:18.817Z,95.36
2017-03-06T04:11:59.499Z,95.31
2017-03-06T04:12:40.230Z,95.65
2017-03-06T04:13:20.791Z,95.74
2017-03-06T04:14:01.439Z,95.55
2017-03-06T04:14:42.166Z,95.36
2017-03-06T04:15:23.884Z,95.46
2017-03-06T04:16:04.523Z,95.55
2017-03-06T04:16:45.191Z,95.36
2017-03-06T04:17:25.842Z,95.55
2017-03-06T04:18:06.472Z,94.79
2017-03-06T04:18:47.246Z,95.07
2017-03-06T04:19:27.878Z,94.98
2017-03-06T04:20:08.533Z,94.89
2017-03-06T04:20:49.188Z,94.89
2017-03-06T04:21:29.849Z,94.79
2017-03-06T04:22:10.493Z,95.17
2017-03-06T04:22:51.148Z,95.07
2017-03-06T04:23:31.802Z,95.17
2017-03-06T04:24:12.491Z,94.98
2017-03-06T04:24:53.206Z,94.89
2017-03-06T04:25:33.766Z,94.7
2017-03-06T04:26:14.429Z,94.98
2017-03-06T04:26:55.092Z,94.98
2017-03-06T04:27:35.809Z,95.07
2017-03-06T04:28:16.349Z,95.07
2017-03-06T04:28:57.039Z,94.89
2017-03-06T04:29:37.716Z,94.98
2017-03-06T04:30:18.418Z,94.98
2017-03-06T04:30:58.983Z,94.98
2017-03-06T04:31:39.591Z,94.98
2017-03-06T04:32:20.184Z,95.07
2017-03-06T04:33:00.825Z,94.98
2017-03-06T04:33:41.472Z,94.98
2017-03-06T04:34:22.153Z,94.98
2017-03-06T04:35:02.899Z,94.98
2017-03-06T04:35:43.553Z,95.36
2017-03-06T04:36:24.205Z,95.27
2017-03-06T04:37:04.854Z,95.17
2017-03-06T04:37:45.603Z,95.17
2017-03-06T04:38:26.253Z,95.07
2017-03-06T04:39:06.922Z,94.51
2017-03-06T04:39:47.555Z,94.23
2017-03-06T04:40:28.219Z,94.6
2017-03-06T04:41:08.878Z,94.7
2017-03-06T04:41:49.628Z,95.07
2017-03-06T04:42:30.284Z,95.17
2017-03-06T04:43:10.922Z,94.6
2017-03-06T04:43:51.491Z,94.79
2017-03-06T04:44:32.158Z,94.79
2017-03-06T04:45:14.898Z,94.7
2017-03-06T04:45:55.503Z,95.07
2017-03-06T04:46:36.061Z,94.51
2017-03-06T04:47:16.697Z,94.7
2017-03-06T04:47:57.410Z,94.42
2017-03-06T04:48:38.103Z,94.51
2017-03-06T04:49:18.655Z,94.6
2017-03-06T04:49:59.314Z,94.51
2017-03-06T04:50:39.984Z,94.89
2017-03-06T04:51:21.652Z,94.98
2017-03-06T04:52:02.325Z,94.98
2017-03-06T04:52:42.904Z,94.98
2017-03-06T04:53:25.585Z,94.79
2017-03-06T04:54:07.274Z,94.98
2017-03-06T04:54:47.972Z,94.32
2017-03-06T04:55:28.509Z,94.42
2017-03-06T04:56:10.225Z,94.89
2017-03-06T04:56:50.914Z,94.42
2017-03-06T04:57:31.612Z,94.42
2017-03-06T04:58:12.160Z,94.51
2017-03-06T04:58:52.813Z,94.42
2017-03-06T04:59:33.514Z,94.42
2017-03-06T05:00:14.225Z,94.32
2017-03-06T05:00:54.773Z,94.42
2017-03-06T05:01:35.428Z,94.32
2017-03-06T05:02:16.140Z,94.13
2017-03-06T05:02:56.825Z,94.51
2017-03-06T05:03:37.361Z,94.51
2017-03-06T05:04:18.054Z,94.32
2017-03-06T05:04:58.690Z,94.32
2017-03-06T05:05:39.342Z,94.51
2017-03-06T05:06:19.994Z,94.32
2017-03-06T05:07:00.652Z,94.51
2017-03-06T05:07:41.311Z,94.6
2017-03-06T05:08:21.964Z,94.51
2017-03-06T05:09:02.606Z,94.51
2017-03-06T05:09:43.155Z,94.6
2017-03-06T05:10:23.809Z,94.32
2017-03-06T05:11:04.458Z,94.6
2017-03-06T05:11:45.028Z,94.6
2017-03-06T05:12:25.690Z,94.42
2017-03-06T05:13:06.418Z,94.32
2017-03-06T05:13:46.971Z,94.6
2017-03-06T05:14:27.632Z,94.6
2017-03-06T05:15:08.328Z,93.75
2017-03-06T05:15:49.030Z,93.94
2017-03-06T05:16:29.584Z,93.56
2017-03-06T05:17:10.253Z,93.65
2017-03-06T05:17:50.944Z,93.94
2017-03-06T05:18:31.654Z,93.94
2017-03-06T05:19:12.239Z,94.13
2017-03-06T05:19:52.977Z,94.23
2017-03-06T05:20:33.670Z,94.03
2017-03-06T05:21:14.359Z,93.75
2017-03-06T05:21:54.937Z,93.75
2017-03-06T05:22:35.666Z,94.13
2017-03-06T05:23:16.391Z,94.03
2017-03-06T05:23:58.101Z,93.94
2017-03-06T05:24:38.751Z,93.75
2017-03-06T05:25:19.398Z,93.75
2017-03-06T05:26:00.062Z,93.46
2017-03-06T05:26:40.807Z,93.37
2017-03-06T05:27:21.462Z,93.75
2017-03-06T05:28:02.113Z,93.37
2017-03-06T05:28:42.765Z,93.65
2017-03-06T05:29:23.418Z,93.75
2017-03-06T05:30:04.071Z,93.56
2017-03-06T05:30:44.724Z,93.75
2017-03-06T05:31:25.389Z,93.75
2017-03-06T05:32:06.152Z,93.65
2017-03-06T05:32:46.890Z,93.56
2017-03-06T05:33:27.558Z,93.94
2017-03-06T05:34:08.095Z,93.65
2017-03-06T05:34:48.785Z,93.27
2017-03-06T05:35:29.524Z,93.08
2017-03-06T05:36:10.172Z,93.56
2017-03-06T05:36:50.838Z,93.37
2017-03-06T05:37:31.570Z,93.46
2017-03-06T05:38:12.158Z,93.27
2017-03-06T05:38:52.890Z,93.27
2017-03-06T05:39:33.623Z,92.9
2017-03-06T05:40:14.179Z,92.8
2017-03-06T05:40:54.856Z,93.37
2017-03-06T05:41:35.531Z,93.37
2017-03-06T05:42:16.231Z,93.27
2017-03-06T05:42:56.786Z,93.27
2017-03-06T05:43:37.452Z,93.08
2017-03-06T05:44:18.147Z,93.27
2017-03-06T05:44:58.871Z,93.27
2017-03-06T05:45:39.445Z,93.27
2017-03-06T05:46:20.160Z,93.08
2017-03-06T05:47:00.888Z,92.8
2017-03-06T05:47:41.559Z,93.27
2017-03-06T05:48:22.126Z,93.27
2017-03-06T05:49:02.843Z,93.27
2017-03-06T05:49:43.586Z,93.18
2017-03-06T05:50:24.277Z,93.27
2017-03-06T05:51:04.852Z,93.27
2017-03-06T05:51:45.596Z,93.46
2017-03-06T05:52:26.395Z,93.37
2017-03-06T05:53:07.093Z,93.18
2017-03-06T05:53:47.653Z,93.18
2017-03-06T05:54:28.346Z,93.08
2017-03-06T05:55:09.049Z,93.08
2017-03-06T05:55:49.644Z,93.37
2017-03-06T05:56:30.437Z,94.03
2017-03-06T05:57:11.114Z,93.94
2017-03-06T05:57:51.676Z,94.13
2017-03-06T05:58:32.353Z,93.56
2017-03-06T05:59:13.095Z,93.75
2017-03-06T05:59:53.618Z,93.75
2017-03-06T06:00:34.290Z,93.75
2017-03-06T06:01:15.027Z,93.65
2017-03-06T06:01:55.595Z,93.75
2017-03-06T06:02:36.231Z,93.65
2017-03-06T06:03:16.987Z,93.84
2017-03-06T06:03:57.591Z,93.75
2017-03-06T06:04:38.315Z,93.37
2017-03-06T06:05:18.996Z,93.56
2017-03-06T06:05:59.701Z,93.65
2017-03-06T06:06:40.271Z,94.03
2017-03-06T06:07:21.033Z,93.94
2017-03-06T06:08:01.785Z,94.13
2017-03-06T06:08:42.520Z,93.75
2017-03-06T06:09:23.088Z,94.13
2017-03-06T06:10:03.877Z,94.03
2017-03-06T06:10:44.722Z,93.94
2017-03-06T06:11:25.367Z,94.03
2017-03-06T06:12:05.997Z,94.13
2017-03-06T06:12:47.678Z,94.03
2017-03-06T06:13:28.477Z,94.13
2017-03-06T06:14:09.227Z,93.75
2017-03-06T06:14:50.134Z,93.75
2017-03-06T06:15:30.791Z,93.94
2017-03-06T06:16:11.479Z,93.75
2017-03-06T06:16:52.225Z,93.84
2017-03-06T06:17:32.969Z,93.94
2017-03-06T06:18:13.610Z,94.7
2017-03-06T06:18:54.287Z,94.27
2017-03-06T06:19:35.105Z,94.42
2017-03-06T06:20:17.816Z,94.6
2017-03-06T06:20:58.384Z,94.6
2017-03-06T06:21:39.078Z,94.6
2017-03-06T06:22:19.745Z,94.51
2017-03-06T06:23:00.429Z,94.32
2017-03-06T06:23:40.975Z,94.6
2017-03-06T06:24:21.628Z,94.51
2017-03-06T06:25:02.497Z,94.7
2017-03-06T06:25:43.059Z,94.6
2017-03-06T06:26:23.703Z,94.51
2017-03-06T06:27:04.363Z,94.51
2017-03-06T06:27:44.933Z,94.32
2017-03-06T06:28:25.680Z,94.51
2017-03-06T06:29:06.405Z,94.13
2017-03-06T06:29:46.969Z,94.42
2017-03-06T06:30:27.633Z,94.51
2017-03-06T06:31:08.369Z,94.79
2017-03-06T06:31:48.933Z,94.98
2017-03-06T06:32:29.618Z,94.79
2017-03-06T06:33:10.328Z,94.51
2017-03-06T06:33:50.907Z,94.7
2017-03-06T06:34:31.561Z,94.42
2017-03-06T06:35:12.236Z,94.79
2017-03-06T06:35:52.945Z,94.79
2017-03-06T06:36:33.508Z,94.6
2017-03-06T06:37:14.281Z,94.98
2017-03-06T06:37:54.959Z,94.79
2017-03-06T06:38:36.679Z,94.7
2017-03-06T06:39:17.446Z,94.6
2017-03-06T06:39:58.198Z,94.79
2017-03-06T06:40:38.943Z,95.27
2017-03-06T06:41:19.695Z,95.07
2017-03-06T06:42:02.404Z,94.46
2017-03-06T06:42:43.150Z,94.89
2017-03-06T06:43:23.821Z,94.89
2017-03-06T06:44:04.562Z,95.17
2017-03-06T06:44:45.220Z,95.17
2017-03-06T06:45:25.889Z,95.36
2017-03-06T06:46:06.624Z,94.98
2017-03-06T06:46:52.908Z,94.89
2017-03-06T06:47:33.675Z,94.7
2017-03-06T06:48:15.463Z,94.89
2017-03-06T06:48:56.033Z,94.7
2017-03-06T06:49:37.791Z,95.27
2017-03-06T06:50:23.442Z,94.89
2017-03-06T06:51:03.999Z,94.93
2017-03-06T06:51:45.693Z,95.79
2017-03-06T06:52:27.358Z,95.55
2017-03-06T06:53:07.918Z,95.55
2017-03-06T06:53:48.661Z,95.36
2017-03-06T06:54:30.399Z,95.6
2017-03-06T06:55:11.098Z,95.55
2017-03-06T06:55:51.703Z,95.55
2017-03-06T06:56:32.407Z,95.74
2017-03-06T06:57:15.152Z,95.84
2017-03-06T06:57:56.887Z,95.74
2017-03-06T06:58:37.451Z,95.65
2017-03-06T06:59:18.210Z,95.46
2017-03-06T06:59:58.921Z,95.46
2017-03-06T07:00:40.640Z,95.36
2017-03-06T07:01:21.163Z,95.74
2017-03-06T07:02:01.855Z,95.74
2017-03-06T07:02:42.548Z,95.74
2017-03-06T07:03:23.228Z,95.46
2017-03-06T07:04:03.782Z,95.46
2017-03-06T07:04:44.446Z,95.46
2017-03-06T07:05:25.193Z,95.55
2017-03-06T07:06:05.845Z,95.46
2017-03-06T07:06:47.526Z,95.36
2017-03-06T07:07:28.181Z,95.55
2017-03-06T07:08:08.919Z,95.36
2017-03-06T07:08:49.625Z,95.36
2017-03-06T07:09:30.328Z,95.65
2017-03-06T07:10:10.994Z,95.55
2017-03-06T07:10:51.763Z,95.65
2017-03-06T07:11:32.505Z,95.46
2017-03-06T07:12:13.264Z,95.55
2017-03-06T07:12:53.912Z,95.55
2017-03-06T07:13:34.668Z,95.55
2017-03-06T07:14:15.392Z,95.46
2017-03-06T07:14:56.071Z,95.55
2017-03-06T07:15:36.630Z,95.46
2017-03-06T07:16:17.410Z,95.55
2017-03-06T07:16:58.080Z,95.55
2017-03-06T07:17:38.785Z,95.55
2017-03-06T07:18:19.360Z,95.55
2017-03-06T07:19:00.087Z,95.46
2017-03-06T07:19:40.774Z,95.36
2017-03-06T07:20:21.412Z,95.36
2017-03-06T07:21:02.180Z,95.74
2017-03-06T07:21:42.922Z,95.55
2017-03-06T07:22:23.662Z,95.46
2017-03-06T07:23:04.440Z,95.55
2017-03-06T07:23:45.217Z,94.98
2017-03-06T07:24:25.964Z,95.17
2017-03-06T07:25:06.692Z,94.98
2017-03-06T07:25:47.452Z,95.17
2017-03-06T07:26:28.247Z,94.89
2017-03-06T07:27:08.996Z,95.07
2017-03-06T07:27:49.741Z,94.89
2017-03-06T07:28:30.379Z,95.07
2017-03-06T07:29:11.131Z,94.98
2017-03-06T07:29:51.902Z,95.17
2017-03-06T07:30:32.638Z,95.27
2017-03-06T07:31:13.395Z,94.6
2017-03-06T07:31:54.180Z,94.32
2017-03-06T07:32:34.931Z,94.7
2017-03-06T07:33:15.645Z,95.36
2017-03-06T07:33:56.403Z,94.56
2017-03-06T07:34:38.247Z,94.74
2017-03-06T07:35:18.955Z,95.03
2017-03-06T07:36:00.533Z,94.84
2017-03-06T07:36:41.297Z,94.65
2017-03-06T07:37:22.113Z,94.84
2017-03-06T07:38:02.908Z,94.46
2017-03-06T07:38:43.650Z,94.74
2017-03-06T07:39:24.391Z,94.84
2017-03-06T07:40:05.158Z,95.03
2017-03-06T07:40:45.945Z,95.03
2017-03-06T07:41:26.689Z,94.46
2017-03-06T07:42:07.452Z,94.46
2017-03-06T07:42:49.209Z,94.18
2017-03-06T07:43:30.892Z,94.37
2017-03-06T07:44:12.675Z,94.46
2017-03-06T07:44:53.482Z,94.37
2017-03-06T07:45:34.278Z,94.37
2017-03-06T07:46:15.013Z,94.37
2017-03-06T07:46:55.614Z,94.65
2017-03-06T07:47:36.330Z,94.74
2017-03-06T07:48:17.075Z,94.18
2017-03-06T07:48:57.862Z,94.37
2017-03-06T07:49:39.638Z,93.8
2017-03-06T07:50:20.363Z,93.99
2017-03-06T07:51:01.011Z,93.8
2017-03-06T07:51:41.610Z,94.08
2017-03-06T07:52:22.299Z,93.99
2017-03-06T07:53:02.868Z,93.89
2017-03-06T07:53:43.458Z,94.18
2017-03-06T07:54:24.071Z,94.08
2017-03-06T07:55:04.617Z,94.08
2017-03-06T07:55:45.207Z,93.99
2017-03-06T07:56:25.835Z,93.89
2017-03-06T07:57:06.395Z,93.6
2017-03-06T07:57:47.070Z,94.18
2017-03-06T07:58:27.675Z,94.18
2017-03-06T07:59:08.336Z,93.6
2017-03-06T07:59:49.004Z,93.6
2017-03-06T08:00:29.666Z,93.41
2017-03-06T08:01:10.312Z,93.51
2017-03-06T08:01:50.943Z,93.7
2017-03-06T08:02:31.614Z,93.51
2017-03-06T08:03:12.273Z,93.7
2017-03-06T08:03:52.857Z,93.7
2017-03-06T08:04:33.490Z,93.6
2017-03-06T08:05:14.063Z,93.89
2017-03-06T08:05:54.687Z,93.8
2017-03-06T08:06:35.245Z,94.08
2017-03-06T08:07:15.895Z,93.32
2017-03-06T08:07:56.471Z,93.32
2017-03-06T08:08:37.089Z,93.41
2017-03-06T08:09:17.685Z,93.6
2017-03-06T08:09:58.283Z,93.51
2017-03-06T08:10:38.879Z,93.51
2017-03-06T08:11:19.571Z,93.37
2017-03-06T08:12:00.155Z,92.99
2017-03-06T08:12:40.795Z,93.04
2017-03-06T08:13:21.424Z,93.32
2017-03-06T08:14:02.084Z,93.18
2017-03-06T08:14:42.745Z,93.08
2017-03-06T08:15:23.405Z,93.18
2017-03-06T08:16:04.034Z,93.27
2017-03-06T08:16:45.717Z,93.46
2017-03-06T08:17:26.364Z,92.71
2017-03-06T08:18:07.040Z,92.9
2017-03-06T08:18:47.678Z,92.42
2017-03-06T08:19:28.334Z,92.32
2017-03-06T08:20:08.983Z,92.71
2017-03-06T08:20:49.643Z,92.8
2017-03-06T08:21:30.282Z,92.99
2017-03-06T08:22:10.962Z,92.99
2017-03-06T08:22:51.582Z,92.32
2017-03-06T08:23:32.243Z,92.61
2017-03-06T08:24:12.797Z,92.32
2017-03-06T08:24:53.451Z,92.42
2017-03-06T08:25:34.119Z,92.13
2017-03-06T08:26:14.775Z,92.13
2017-03-06T08:26:55.481Z,91.85
2017-03-06T08:27:36.065Z,91.42
2017-03-06T08:28:16.761Z,91.52
2017-03-06T08:28:57.368Z,91.04
2017-03-06T08:29:38.034Z,90.75
2017-03-06T08:30:18.691Z,91.23
2017-03-06T08:30:59.342Z,91.33
2017-03-06T08:31:39.995Z,91.08
2017-03-06T08:32:20.690Z,90.42
2017-03-06T08:33:01.327Z,90.61
2017-03-06T08:33:41.956Z,90.04
2017-03-06T08:34:22.639Z,89.94
2017-03-06T08:35:03.230Z,89.66
2017-03-06T08:35:43.783Z,89.37
2017-03-06T08:36:25.401Z,89.42
2017-03-06T08:37:06.092Z,89.04
2017-03-06T08:37:46.669Z,88.85
2017-03-06T08:38:27.269Z,89.04
2017-03-06T08:39:07.880Z,89.32
2017-03-06T08:39:48.582Z,88.75
2017-03-06T08:40:29.169Z,88.75
2017-03-06T08:41:09.751Z,88.56
2017-03-06T08:41:50.400Z,88.28
2017-03-06T08:42:30.962Z,88.66
2017-03-06T08:43:11.607Z,88.56
2017-03-06T08:43:52.273Z,88.28
2017-03-06T08:44:32.909Z,88.18
2017-03-06T08:45:13.560Z,88.28
2017-03-06T08:45:54.165Z,88.46
2017-03-06T08:46:34.764Z,88.23
2017-03-06T08:47:15.413Z,88.52